createdAt,value
2018-07-26T00:00:16.237Z,20.75
2018-07-26T00:01:16.270Z,20.72
2018-07-26T00:02:16.534Z,20.69
2018-07-26T00:03:16.805Z,20.68
2018-07-26T00:04:17.073Z,19.75
2018-07-26T00:05:16.338Z,20.59
2018-07-26T00:06:16.603Z,20.57
2018-07-26T00:07:16.864Z,20.54
2018-07-26T00:08:17.146Z,20.50
2018-07-26T00:09:16.427Z,20.55
2018-07-26T00:10:16.695Z,20.47
2018-07-26T00:11:16.748Z,20.43
2018-07-26T00:12:17.018Z,20.37
2018-07-26T00:13:16.293Z,20.36
2018-07-26T00:14:16.862Z,19.75
2018-07-26T00:15:17.129Z,20.33
2018-07-26T00:16:16.395Z,19.75
2018-07-26T00:17:16.675Z,20.29
2018-07-26T00:18:16.952Z,19.75
2018-07-26T00:19:16.229Z,20.28
2018-07-26T00:20:16.514Z,20.44
2018-07-26T00:21:16.545Z,19.75
2018-07-26T00:22:16.816Z,19.75
2018-07-26T00:23:17.093Z,20.40
2018-07-26T00:24:16.364Z,20.44
2018-07-26T00:25:16.631Z,20.41
2018-07-26T00:26:16.908Z,19.75
2018-07-26T00:27:17.177Z,20.33
2018-07-26T00:28:16.447Z,20.29
2018-07-26T00:29:16.711Z,20.25
2018-07-26T00:30:17.013Z,19.75
2018-07-26T00:31:17.033Z,20.32
2018-07-26T00:32:16.311Z,19.75
2018-07-26T00:33:16.585Z,19.75
2018-07-26T00:34:16.857Z,19.75
2018-07-26T00:35:17.132Z,20.21
2018-07-26T00:36:16.396Z,20.34
2018-07-26T00:37:16.674Z,20.24
2018-07-26T00:38:16.931Z,19.75
2018-07-26T00:39:17.207Z,20.18
2018-07-26T00:40:16.485Z,20.27
2018-07-26T00:41:16.612Z,20.28
2018-07-26T00:42:16.922Z,20.28
2018-07-26T00:43:17.194Z,20.21
2018-07-26T00:44:16.465Z,20.21
2018-07-26T00:45:16.738Z,20.24
2018-07-26T00:46:17.004Z,20.13
2018-07-26T00:47:16.270Z,20.10
2018-07-26T00:48:16.541Z,20.08
2018-07-26T00:49:16.821Z,20.10
2018-07-26T00:50:17.105Z,20.07
2018-07-26T00:51:17.139Z,20.04
2018-07-26T00:52:16.408Z,20.01
2018-07-26T00:53:16.671Z,20.00
2018-07-26T00:54:16.942Z,19.99
2018-07-26T00:55:16.208Z,19.97
2018-07-26T00:56:16.502Z,19.97
2018-07-26T00:57:16.773Z,19.97
2018-07-26T00:58:17.043Z,19.92
2018-07-26T00:59:16.306Z,19.88
2018-07-26T01:00:16.590Z,19.87
2018-07-26T01:01:16.633Z,19.84
2018-07-26T01:02:16.912Z,19.82
2018-07-26T01:03:17.179Z,20.01
2018-07-26T01:04:16.454Z,20.00
2018-07-26T01:05:16.715Z,19.25
2018-07-26T01:06:16.971Z,19.25
2018-07-26T01:07:16.241Z,19.85
2018-07-26T01:08:16.508Z,19.92
2018-07-26T01:09:16.778Z,19.25
2018-07-26T01:10:17.056Z,19.85
2018-07-26T01:11:17.094Z,19.81
2018-07-26T01:12:16.364Z,19.75
2018-07-26T01:13:16.646Z,19.77
2018-07-26T01:14:16.915Z,19.77
2018-07-26T01:15:17.183Z,19.75
2018-07-26T01:16:16.449Z,19.74
2018-07-26T01:17:16.710Z,19.25
2018-07-26T01:18:16.991Z,19.77
2018-07-26T01:19:16.267Z,19.25
2018-07-26T01:20:16.544Z,19.70
2018-07-26T01:21:16.585Z,19.70
2018-07-26T01:22:16.859Z,19.64
2018-07-26T01:23:17.124Z,19.63
2018-07-26T01:24:16.401Z,19.25
2018-07-26T01:25:16.677Z,19.68
2018-07-26T01:26:16.939Z,19.64
2018-07-26T01:27:16.220Z,19.62
2018-07-26T01:28:16.490Z,19.60
2018-07-26T01:29:16.765Z,19.59
2018-07-26T01:30:17.040Z,19.59
2018-07-26T01:31:17.084Z,19.25
2018-07-26T01:32:16.356Z,19.55
2018-07-26T01:33:16.630Z,19.66
2018-07-26T01:34:16.900Z,19.62
2018-07-26T01:35:17.171Z,19.70
2018-07-26T01:36:16.446Z,19.73
2018-07-26T01:37:16.714Z,19.68
2018-07-26T01:38:16.981Z,19.64
2018-07-26T01:39:16.242Z,19.60
2018-07-26T01:40:16.558Z,19.64
2018-07-26T01:41:16.590Z,19.62
2018-07-26T01:42:16.856Z,19.56
2018-07-26T01:43:17.127Z,19.51
2018-07-26T01:44:16.398Z,19.49
2018-07-26T01:45:16.683Z,19.48
2018-07-26T01:46:16.964Z,19.49
2018-07-26T01:47:16.232Z,19.48
2018-07-26T01:48:16.522Z,19.51
2018-07-26T01:49:16.779Z,19.48
2018-07-26T01:50:17.062Z,19.48
2018-07-26T01:51:17.088Z,19.42
2018-07-26T01:52:16.354Z,19.41
2018-07-26T01:53:16.623Z,19.42
2018-07-26T01:54:16.899Z,19.42
2018-07-26T01:55:17.161Z,19.40
2018-07-26T01:56:16.424Z,19.37
2018-07-26T01:57:16.718Z,19.30
2018-07-26T01:58:16.982Z,19.30
2018-07-26T01:59:16.546Z,19.31
2018-07-26T02:00:16.826Z,19.24
2018-07-26T02:01:16.851Z,19.23
2018-07-26T02:02:17.125Z,19.22
2018-07-26T02:03:16.389Z,19.17
2018-07-26T02:04:16.668Z,19.16
2018-07-26T02:05:16.941Z,19.16
2018-07-26T02:06:16.221Z,19.30
2018-07-26T02:07:16.488Z,19.26
2018-07-26T02:08:16.750Z,19.27
2018-07-26T02:09:17.021Z,19.20
2018-07-26T02:10:16.290Z,19.19
2018-07-26T02:11:16.331Z,19.13
2018-07-26T02:12:16.618Z,19.09
2018-07-26T02:13:16.890Z,19.09
2018-07-26T02:14:17.162Z,19.04
2018-07-26T02:15:16.434Z,19.02
2018-07-26T02:16:16.695Z,18.75
2018-07-26T02:17:16.969Z,19.08
2018-07-26T02:18:16.238Z,19.04
2018-07-26T02:19:16.518Z,18.75
2018-07-26T02:20:16.789Z,18.75
2018-07-26T02:21:16.840Z,19.02
2018-07-26T02:22:17.111Z,18.75
2018-07-26T02:23:16.379Z,18.97
2018-07-26T02:24:16.661Z,18.97
2018-07-26T02:25:16.929Z,18.95
2018-07-26T02:26:16.247Z,18.97
2018-07-26T02:27:16.520Z,18.95
2018-07-26T02:28:16.798Z,19.01
2018-07-26T02:29:17.069Z,18.99
2018-07-26T02:30:16.353Z,18.98
2018-07-26T02:31:16.405Z,19.02
2018-07-26T02:32:16.676Z,19.01
2018-07-26T02:33:16.958Z,19.02
2018-07-26T02:34:16.234Z,19.05
2018-07-26T02:35:16.513Z,19.02
2018-07-26T02:36:16.788Z,18.75
2018-07-26T02:37:17.065Z,18.95
2018-07-26T02:38:16.351Z,18.92
2018-07-26T02:39:16.625Z,18.94
2018-07-26T02:40:16.897Z,19.15
2018-07-26T02:41:16.941Z,19.12
2018-07-26T02:42:16.211Z,19.08
2018-07-26T02:43:16.482Z,19.05
2018-07-26T02:44:16.762Z,19.02
2018-07-26T02:45:17.020Z,18.75
2018-07-26T02:46:16.285Z,18.99
2018-07-26T02:47:16.557Z,18.94
2018-07-26T02:48:16.802Z,18.85
2018-07-26T02:49:17.069Z,18.85
2018-07-26T02:50:16.666Z,18.75
2018-07-26T02:51:16.707Z,18.76
2018-07-26T02:52:16.988Z,18.85
2018-07-26T02:53:16.273Z,18.83
2018-07-26T02:54:16.546Z,18.76
2018-07-26T02:55:16.818Z,18.73
2018-07-26T02:56:17.087Z,18.71
2018-07-26T02:57:16.354Z,18.66
2018-07-26T02:58:16.633Z,18.64
2018-07-26T02:59:16.906Z,18.61
2018-07-26T03:00:17.187Z,18.58
2018-07-26T03:01:16.224Z,18.59
2018-07-26T03:02:16.510Z,18.54
2018-07-26T03:03:16.789Z,18.51
2018-07-26T03:04:17.062Z,18.54
2018-07-26T03:05:16.323Z,18.54
2018-07-26T03:06:16.596Z,18.65
2018-07-26T03:07:17.021Z,18.71
2018-07-26T03:08:16.405Z,18.62
2018-07-26T03:09:16.687Z,18.61
2018-07-26T03:10:16.975Z,18.58
2018-07-26T03:11:17.005Z,18.55
2018-07-26T03:12:16.349Z,18.55
2018-07-26T03:13:16.608Z,18.55
2018-07-26T03:14:16.892Z,18.50
2018-07-26T03:15:17.165Z,18.50
2018-07-26T03:16:16.435Z,18.51
2018-07-26T03:17:16.710Z,18.54
2018-07-26T03:18:17.004Z,18.50
2018-07-26T03:19:16.274Z,18.49
2018-07-26T03:20:16.561Z,18.44
2018-07-26T03:21:16.604Z,18.43
2018-07-26T03:22:16.906Z,18.42
2018-07-26T03:23:17.198Z,18.40
2018-07-26T03:24:16.469Z,18.40
2018-07-26T03:25:16.743Z,18.38
2018-07-26T03:26:17.024Z,18.38
2018-07-26T03:27:16.297Z,18.25
2018-07-26T03:28:16.564Z,18.38
2018-07-26T03:29:16.836Z,18.38
2018-07-26T03:30:17.123Z,18.40
2018-07-26T03:31:17.179Z,18.32
2018-07-26T03:32:16.452Z,18.28
2018-07-26T03:33:16.721Z,18.28
2018-07-26T03:34:16.988Z,18.35
2018-07-26T03:35:16.254Z,18.32
2018-07-26T03:36:16.529Z,18.31
2018-07-26T03:37:16.794Z,18.26
2018-07-26T03:38:17.060Z,18.25
2018-07-26T03:39:16.339Z,18.24
2018-07-26T03:40:16.616Z,18.22
2018-07-26T03:41:16.665Z,18.17
2018-07-26T03:42:16.928Z,18.18
2018-07-26T03:43:16.195Z,18.13
2018-07-26T03:44:16.463Z,18.10
2018-07-26T03:45:16.733Z,18.12
2018-07-26T03:46:16.999Z,18.13
2018-07-26T03:47:16.265Z,18.12
2018-07-26T03:48:16.527Z,18.10
2018-07-26T03:49:16.787Z,18.09
2018-07-26T03:50:17.066Z,18.09
2018-07-26T03:51:17.210Z,18.07
2018-07-26T03:52:16.615Z,18.10
2018-07-26T03:53:16.886Z,18.25
2018-07-26T03:54:17.155Z,18.19
2018-07-26T03:55:16.431Z,18.17
2018-07-26T03:56:16.691Z,18.15
2018-07-26T03:57:16.957Z,18.13
2018-07-26T03:58:16.220Z,18.17
2018-07-26T03:59:16.490Z,18.17
2018-07-26T04:00:16.776Z,18.22
2018-07-26T04:01:16.836Z,18.22
2018-07-26T04:02:17.103Z,18.25
2018-07-26T04:03:16.414Z,18.22
2018-07-26T04:04:16.708Z,18.25
2018-07-26T04:05:16.979Z,18.35
2018-07-26T04:06:16.256Z,18.21
2018-07-26T04:07:16.518Z,18.22
2018-07-26T04:08:16.782Z,18.29
2018-07-26T04:09:17.041Z,18.25
2018-07-26T04:10:16.309Z,18.36
2018-07-26T04:11:16.362Z,18.57
2018-07-26T04:12:16.638Z,18.54
2018-07-26T04:13:16.907Z,18.42
2018-07-26T04:14:17.181Z,18.35
2018-07-26T04:15:16.463Z,18.33
2018-07-26T04:16:16.725Z,18.35
2018-07-26T04:17:17.001Z,18.55
2018-07-26T04:18:16.269Z,18.49
2018-07-26T04:19:16.541Z,18.46
2018-07-26T04:20:16.826Z,18.50
2018-07-26T04:21:16.881Z,18.57
2018-07-26T04:22:17.153Z,18.42
2018-07-26T04:23:16.473Z,18.33
2018-07-26T04:24:16.751Z,18.35
2018-07-26T04:25:17.033Z,18.49
2018-07-26T04:26:16.328Z,18.50
2018-07-26T04:27:16.595Z,18.51
2018-07-26T04:28:16.866Z,18.55
2018-07-26T04:29:17.130Z,18.57
2018-07-26T04:30:16.392Z,18.25
2018-07-26T04:31:16.457Z,18.64
2018-07-26T04:32:16.761Z,18.66
2018-07-26T04:33:17.172Z,18.69
2018-07-26T04:34:16.435Z,18.73
2018-07-26T04:35:16.711Z,18.73
2018-07-26T04:36:16.973Z,18.73
2018-07-26T04:37:16.253Z,18.87
2018-07-26T04:38:16.527Z,18.92
2018-07-26T04:39:16.801Z,18.98
2018-07-26T04:40:17.110Z,19.10
2018-07-26T04:41:17.114Z,19.10
2018-07-26T04:42:16.387Z,19.17
2018-07-26T04:43:16.649Z,19.22
2018-07-26T04:44:16.913Z,19.23
2018-07-26T04:45:17.184Z,19.29
2018-07-26T04:46:16.456Z,19.24
2018-07-26T04:47:16.723Z,19.27
2018-07-26T04:48:16.987Z,19.33
2018-07-26T04:49:16.260Z,19.34
2018-07-26T04:50:16.550Z,19.34
2018-07-26T04:51:16.573Z,19.38
2018-07-26T04:52:16.845Z,19.44
2018-07-26T04:53:17.117Z,19.51
2018-07-26T04:54:16.392Z,18.75
2018-07-26T04:55:16.675Z,18.75
2018-07-26T04:56:16.958Z,19.57
2018-07-26T04:57:16.223Z,19.49
2018-07-26T04:58:16.500Z,18.75
2018-07-26T04:59:16.766Z,19.70
2018-07-26T05:00:17.042Z,19.74
2018-07-26T05:01:17.538Z,19.80
2018-07-26T05:02:16.822Z,19.85
2018-07-26T05:03:17.097Z,19.88
2018-07-26T05:04:16.362Z,19.92
2018-07-26T05:05:16.644Z,20.03
2018-07-26T05:06:16.910Z,20.01
2018-07-26T05:07:17.180Z,20.00
2018-07-26T05:08:16.451Z,20.06
2018-07-26T05:09:16.721Z,20.10
2018-07-26T05:10:17.005Z,20.15
2018-07-26T05:11:17.045Z,20.15
2018-07-26T05:12:16.315Z,20.20
2018-07-26T05:13:16.585Z,20.33
2018-07-26T05:14:16.861Z,20.54
2018-07-26T05:15:17.130Z,20.59
2018-07-26T05:16:16.405Z,20.66
2018-07-26T05:17:16.675Z,20.96
2018-07-26T05:18:16.938Z,20.89
2018-07-26T05:19:17.206Z,20.78
2018-07-26T05:20:16.477Z,20.79
2018-07-26T05:21:16.534Z,20.86
2018-07-26T05:22:16.803Z,21.19
2018-07-26T05:23:17.078Z,21.39
2018-07-26T05:24:16.347Z,21.53
2018-07-26T05:25:16.622Z,21.73
2018-07-26T05:26:16.891Z,21.74
2018-07-26T05:27:17.158Z,21.85
2018-07-26T05:28:16.422Z,21.99
2018-07-26T05:29:16.685Z,19.75
2018-07-26T05:30:16.974Z,19.75
2018-07-26T05:31:17.010Z,19.75
2018-07-26T05:32:16.274Z,21.84
2018-07-26T05:33:16.547Z,21.89
2018-07-26T05:34:16.811Z,21.84
2018-07-26T05:35:17.101Z,21.82
2018-07-26T05:36:16.406Z,21.99
2018-07-26T05:37:16.700Z,22.00
2018-07-26T05:38:16.968Z,20.25
2018-07-26T05:39:16.238Z,22.31
2018-07-26T05:40:16.537Z,20.25
2018-07-26T05:41:16.578Z,22.22
2018-07-26T05:42:16.850Z,22.27
2018-07-26T05:43:17.172Z,22.50
2018-07-26T05:44:16.542Z,22.47
2018-07-26T05:45:16.862Z,22.43
2018-07-26T05:46:17.137Z,22.39
2018-07-26T05:47:16.409Z,22.54
2018-07-26T05:48:16.675Z,22.57
2018-07-26T05:49:16.958Z,22.60
2018-07-26T05:50:16.241Z,22.57
2018-07-26T05:51:16.272Z,22.93
2018-07-26T05:52:16.544Z,23.08
2018-07-26T05:53:16.815Z,23.16
2018-07-26T05:54:17.158Z,23.36
2018-07-26T05:55:16.430Z,23.44
2018-07-26T05:56:16.699Z,23.29
2018-07-26T05:57:16.966Z,23.38
2018-07-26T05:58:16.236Z,23.34
2018-07-26T05:59:16.507Z,23.43
2018-07-26T06:00:16.967Z,23.77
2018-07-26T06:01:16.824Z,23.85
2018-07-26T06:02:17.094Z,23.64
2018-07-26T06:03:16.366Z,23.78
2018-07-26T06:04:16.643Z,23.77
2018-07-26T06:05:16.911Z,23.71
2018-07-26T06:06:17.178Z,23.69
2018-07-26T06:07:16.449Z,23.57
2018-07-26T06:08:16.722Z,23.61
2018-07-26T06:09:16.988Z,23.98
2018-07-26T06:10:16.272Z,24.08
2018-07-26T06:11:16.305Z,24.23
2018-07-26T06:12:16.580Z,23.95
2018-07-26T06:13:16.849Z,24.08
2018-07-26T06:14:17.116Z,24.06
2018-07-26T06:15:16.415Z,24.10
2018-07-26T06:16:16.706Z,24.34
2018-07-26T06:17:17.073Z,24.61
2018-07-26T06:18:16.462Z,24.59
2018-07-26T06:19:16.749Z,24.66
2018-07-26T06:20:17.026Z,24.60
2018-07-26T06:21:17.058Z,24.71
2018-07-26T06:22:16.324Z,24.78
2018-07-26T06:23:16.595Z,24.92
2018-07-26T06:24:16.867Z,25.04
2018-07-26T06:25:17.142Z,25.11
2018-07-26T06:26:16.421Z,25.01
2018-07-26T06:27:16.683Z,25.11
2018-07-26T06:28:16.310Z,25.31
2018-07-26T06:29:16.749Z,22.25
2018-07-26T06:30:17.017Z,25.74
2018-07-26T06:31:17.077Z,25.87
2018-07-26T06:32:16.352Z,26.10
2018-07-26T06:33:16.674Z,26.19
2018-07-26T06:34:16.966Z,26.06
2018-07-26T06:35:16.231Z,26.13
2018-07-26T06:36:16.504Z,26.15
2018-07-26T06:37:16.781Z,26.16
2018-07-26T06:38:17.041Z,22.75
2018-07-26T06:39:16.320Z,22.75
2018-07-26T06:40:16.592Z,26.61
2018-07-26T06:41:16.657Z,26.59
2018-07-26T06:42:16.935Z,26.62
2018-07-26T06:43:17.210Z,27.02
2018-07-26T06:44:16.488Z,27.00
2018-07-26T06:45:16.755Z,27.06
2018-07-26T06:46:17.021Z,27.47
2018-07-26T06:47:16.288Z,27.74
2018-07-26T06:48:16.558Z,27.95
2018-07-26T06:49:16.823Z,28.31
2018-07-26T06:50:17.104Z,28.51
2018-07-26T06:51:17.165Z,23.25
2018-07-26T06:52:16.429Z,28.98
2018-07-26T06:53:16.697Z,29.25
2018-07-26T06:54:16.969Z,29.58
2018-07-26T06:55:16.266Z,29.52
2018-07-26T06:56:16.545Z,29.66
2018-07-26T06:57:16.817Z,29.76
2018-07-26T06:58:17.083Z,29.72
2018-07-26T06:59:16.355Z,30.14
2018-07-26T07:00:16.645Z,30.56
2018-07-26T07:01:16.758Z,31.10
2018-07-26T07:02:17.025Z,31.40
2018-07-26T07:03:16.293Z,31.39
2018-07-26T07:04:16.571Z,31.25
2018-07-26T07:05:16.844Z,31.54
2018-07-26T07:06:17.106Z,31.74
2018-07-26T07:07:16.385Z,31.98
2018-07-26T07:08:16.671Z,24.75
2018-07-26T07:09:16.948Z,32.14
2018-07-26T07:10:16.226Z,32.04
2018-07-26T07:11:16.264Z,31.93
2018-07-26T07:12:16.535Z,32.36
2018-07-26T07:13:16.812Z,31.32
2018-07-26T07:14:17.087Z,30.34
2018-07-26T07:15:16.365Z,31.14
2018-07-26T07:16:16.640Z,32.61
2018-07-26T07:17:16.910Z,25.25
2018-07-26T07:18:17.184Z,25.25
2018-07-26T07:19:16.440Z,31.29
2018-07-26T07:20:16.904Z,31.60
2018-07-26T07:21:16.771Z,31.47
2018-07-26T07:22:17.038Z,30.67
2018-07-26T07:23:16.306Z,31.49
2018-07-26T07:24:16.581Z,32.07
2018-07-26T07:25:16.850Z,32.60
2018-07-26T07:26:17.122Z,32.66
2018-07-26T07:27:16.388Z,32.77
2018-07-26T07:28:16.650Z,25.75
2018-07-26T07:29:16.911Z,25.75
2018-07-26T07:30:17.202Z,34.45
2018-07-26T07:31:16.243Z,34.51
2018-07-26T07:32:16.511Z,34.12
2018-07-26T07:33:16.848Z,33.18
2018-07-26T07:34:17.156Z,33.40
2018-07-26T07:35:16.419Z,33.64
2018-07-26T07:36:16.696Z,33.73
2018-07-26T07:37:16.967Z,33.98
2018-07-26T07:38:16.239Z,34.31
2018-07-26T07:39:16.512Z,34.10
2018-07-26T07:40:16.798Z,34.40
2018-07-26T07:41:16.840Z,33.93
2018-07-26T07:42:17.126Z,26.25
2018-07-26T07:43:16.404Z,26.25
2018-07-26T07:44:16.671Z,33.69
2018-07-26T07:45:16.947Z,26.25
2018-07-26T07:46:16.206Z,35.11
2018-07-26T07:47:16.492Z,35.30
2018-07-26T07:48:16.952Z,35.51
2018-07-26T07:49:16.219Z,33.51
2018-07-26T07:50:16.497Z,32.28
2018-07-26T07:51:16.557Z,34.06
2018-07-26T07:52:16.828Z,34.24
2018-07-26T07:53:17.116Z,34.40
2018-07-26T07:54:16.385Z,35.20
2018-07-26T07:55:16.664Z,35.67
2018-07-26T07:56:16.937Z,34.31
2018-07-26T07:57:16.208Z,34.45
2018-07-26T07:58:16.480Z,32.95
2018-07-26T07:59:16.749Z,34.27
2018-07-26T08:00:17.028Z,35.13
2018-07-26T08:01:17.082Z,26.75
2018-07-26T08:02:16.352Z,26.75
2018-07-26T08:03:16.622Z,26.75
2018-07-26T08:04:16.894Z,26.75
2018-07-26T08:05:17.224Z,34.31
2018-07-26T08:06:16.597Z,36.16
2018-07-26T08:07:16.864Z,36.67
2018-07-26T08:08:17.133Z,37.16
2018-07-26T08:09:16.401Z,37.13
2018-07-26T08:10:16.673Z,37.27
2018-07-26T08:11:16.760Z,35.15
2018-07-26T08:12:17.196Z,36.53
2018-07-26T08:13:16.462Z,36.99
2018-07-26T08:14:16.741Z,36.24
2018-07-26T08:15:17.029Z,36.40
2018-07-26T08:16:16.293Z,35.31
2018-07-26T08:17:16.555Z,27.25
2018-07-26T08:18:16.815Z,35.66
2018-07-26T08:19:17.079Z,35.69
2018-07-26T08:20:16.351Z,35.99
2018-07-26T08:21:16.442Z,36.08
2018-07-26T08:22:16.770Z,36.52
2018-07-26T08:23:17.055Z,36.27
2018-07-26T08:24:16.510Z,36.05
2018-07-26T08:25:16.780Z,36.60
2018-07-26T08:26:17.054Z,36.46
2018-07-26T08:27:16.324Z,36.66
2018-07-26T08:28:16.584Z,37.23
2018-07-26T08:29:16.863Z,38.02
2018-07-26T08:30:17.161Z,38.56
2018-07-26T08:31:16.230Z,36.70
2018-07-26T08:32:16.498Z,36.14
2018-07-26T08:33:16.774Z,35.34
2018-07-26T08:34:17.052Z,35.26
2018-07-26T08:35:16.322Z,36.03
2018-07-26T08:36:16.604Z,36.84
2018-07-26T08:37:16.886Z,35.80
2018-07-26T08:38:17.158Z,35.13
2018-07-26T08:39:16.426Z,27.75
2018-07-26T08:40:16.717Z,27.75
2018-07-26T08:41:16.771Z,34.23
2018-07-26T08:42:17.034Z,34.31
2018-07-26T08:43:16.301Z,35.57
2018-07-26T08:44:16.568Z,36.42
2018-07-26T08:45:16.840Z,34.56
2018-07-26T08:46:17.104Z,34.72
2018-07-26T08:47:16.365Z,33.93
2018-07-26T08:48:16.723Z,33.02
2018-07-26T08:49:17.059Z,34.24
2018-07-26T08:50:16.326Z,34.84
2018-07-26T08:51:16.365Z,34.22
2018-07-26T08:52:16.738Z,35.12
2018-07-26T08:53:17.140Z,35.67
2018-07-26T08:54:16.484Z,35.81
2018-07-26T08:55:16.922Z,36.10
2018-07-26T08:56:17.190Z,35.34
2018-07-26T08:57:16.456Z,34.41
2018-07-26T08:58:16.721Z,35.05
2018-07-26T08:59:17.001Z,35.43
2018-07-26T09:00:16.326Z,34.09
2018-07-26T09:01:16.375Z,28.25
2018-07-26T09:02:16.649Z,33.59
2018-07-26T09:03:16.925Z,33.30
2018-07-26T09:04:17.207Z,31.72
2018-07-26T09:05:16.504Z,32.72
2018-07-26T09:06:16.798Z,33.52
2018-07-26T09:07:17.082Z,32.26
2018-07-26T09:08:16.355Z,31.77
2018-07-26T09:09:16.622Z,32.40
2018-07-26T09:10:16.909Z,33.07
2018-07-26T09:11:16.969Z,33.97
2018-07-26T09:12:16.246Z,33.04
2018-07-26T09:13:16.516Z,33.62
2018-07-26T09:14:16.785Z,34.70
2018-07-26T09:15:17.055Z,35.16
2018-07-26T09:16:16.323Z,34.37
2018-07-26T09:17:16.670Z,34.63
2018-07-26T09:18:17.063Z,35.04
2018-07-26T09:19:16.332Z,33.33
2018-07-26T09:20:16.619Z,33.68
2018-07-26T09:21:16.667Z,34.59
2018-07-26T09:22:16.924Z,35.13
2018-07-26T09:23:17.212Z,35.95
2018-07-26T09:24:16.498Z,36.02
2018-07-26T09:25:16.765Z,34.38
2018-07-26T09:26:17.099Z,35.49
2018-07-26T09:27:16.502Z,28.75
2018-07-26T09:28:16.765Z,36.46
2018-07-26T09:29:17.036Z,36.40
2018-07-26T09:30:16.315Z,28.75
2018-07-26T09:31:16.361Z,34.44
2018-07-26T09:32:16.641Z,34.69
2018-07-26T09:33:16.933Z,35.16
2018-07-26T09:34:16.329Z,35.46
2018-07-26T09:35:16.631Z,34.61
2018-07-26T09:36:16.979Z,34.37
2018-07-26T09:37:16.250Z,35.83
2018-07-26T09:38:16.528Z,35.29
2018-07-26T09:39:16.798Z,35.85
2018-07-26T09:40:17.203Z,37.29
2018-07-26T09:41:17.131Z,38.20
2018-07-26T09:42:16.398Z,38.23
2018-07-26T09:43:16.676Z,38.85
2018-07-26T09:44:16.949Z,37.83
2018-07-26T09:45:16.221Z,36.91
2018-07-26T09:46:16.494Z,29.25
2018-07-26T09:47:16.779Z,34.80
2018-07-26T09:48:17.098Z,34.56
2018-07-26T09:49:16.367Z,35.69
2018-07-26T09:50:16.643Z,34.56
2018-07-26T09:51:16.684Z,34.26
2018-07-26T09:52:16.958Z,36.80
2018-07-26T09:53:16.226Z,36.37
2018-07-26T09:54:16.494Z,36.40
2018-07-26T09:55:16.764Z,35.73
2018-07-26T09:56:17.032Z,35.73
2018-07-26T09:57:16.297Z,36.41
2018-07-26T09:58:16.576Z,35.38
2018-07-26T09:59:16.858Z,35.60
2018-07-26T10:00:17.227Z,35.20
2018-07-26T10:01:17.180Z,32.93
2018-07-26T10:02:16.454Z,33.51
2018-07-26T10:03:16.733Z,33.62
2018-07-26T10:04:17.006Z,33.16
2018-07-26T10:05:16.290Z,33.13
2018-07-26T10:06:16.573Z,33.82
2018-07-26T10:07:16.843Z,34.44
2018-07-26T10:08:17.113Z,35.36
2018-07-26T10:09:16.385Z,35.56
2018-07-26T10:10:16.657Z,35.74
2018-07-26T10:11:16.716Z,35.57
2018-07-26T10:12:16.983Z,29.25
2018-07-26T10:13:16.256Z,35.81
2018-07-26T10:14:16.520Z,36.21
2018-07-26T10:15:16.795Z,34.81
2018-07-26T10:16:17.068Z,36.23
2018-07-26T10:17:16.343Z,29.75
2018-07-26T10:18:16.615Z,37.16
2018-07-26T10:19:16.890Z,36.74
2018-07-26T10:20:17.188Z,36.74
2018-07-26T10:21:16.210Z,36.80
2018-07-26T10:22:16.485Z,35.37
2018-07-26T10:23:16.758Z,35.67
2018-07-26T10:24:17.027Z,34.65
2018-07-26T10:25:16.297Z,35.02
2018-07-26T10:26:16.562Z,34.87
2018-07-26T10:27:16.832Z,35.31
2018-07-26T10:28:17.101Z,36.12
2018-07-26T10:29:16.375Z,30.25
2018-07-26T10:30:16.655Z,30.25
2018-07-26T10:31:16.743Z,34.55
2018-07-26T10:32:17.014Z,34.40
2018-07-26T10:33:16.280Z,34.70
2018-07-26T10:34:16.550Z,36.31
2018-07-26T10:35:16.818Z,35.81
2018-07-26T10:36:17.159Z,35.66
2018-07-26T10:37:16.496Z,35.08
2018-07-26T10:38:16.797Z,35.05
2018-07-26T10:39:17.078Z,34.38
2018-07-26T10:40:16.361Z,34.97
2018-07-26T10:41:16.395Z,29.25
2018-07-26T10:42:16.657Z,35.55
2018-07-26T10:43:16.927Z,35.41
2018-07-26T10:44:17.185Z,34.22
2018-07-26T10:45:16.469Z,33.89
2018-07-26T10:46:16.750Z,33.30
2018-07-26T10:47:17.024Z,34.54
2018-07-26T10:48:16.293Z,34.92
2018-07-26T10:49:16.570Z,35.59
2018-07-26T10:50:16.848Z,35.95
2018-07-26T10:51:16.896Z,35.85
2018-07-26T10:52:17.178Z,33.65
2018-07-26T10:53:16.445Z,33.48
2018-07-26T10:54:16.710Z,28.75
2018-07-26T10:55:16.974Z,31.90
2018-07-26T10:56:16.249Z,31.90
2018-07-26T10:57:16.521Z,31.00
2018-07-26T10:58:16.798Z,31.21
2018-07-26T10:59:17.061Z,31.98
2018-07-26T11:00:16.363Z,33.40
2018-07-26T11:01:16.400Z,33.72
2018-07-26T11:02:16.662Z,33.82
2018-07-26T11:03:16.943Z,34.62
2018-07-26T11:04:16.220Z,33.96
2018-07-26T11:05:16.494Z,33.58
2018-07-26T11:06:16.778Z,33.44
2018-07-26T11:07:17.050Z,33.57
2018-07-26T11:08:16.321Z,33.80
2018-07-26T11:09:16.589Z,35.60
2018-07-26T11:10:16.880Z,28.75
2018-07-26T11:11:16.923Z,35.02
2018-07-26T11:12:17.191Z,34.54
2018-07-26T11:13:16.453Z,33.83
2018-07-26T11:14:16.729Z,34.10
2018-07-26T11:15:17.023Z,34.73
2018-07-26T11:16:16.334Z,34.99
2018-07-26T11:17:16.603Z,35.57
2018-07-26T11:18:16.866Z,35.77
2018-07-26T11:19:17.121Z,29.25
2018-07-26T11:20:16.397Z,36.66
2018-07-26T11:21:16.436Z,36.42
2018-07-26T11:22:16.715Z,35.88
2018-07-26T11:23:16.986Z,36.06
2018-07-26T11:24:16.283Z,35.53
2018-07-26T11:25:16.757Z,34.92
2018-07-26T11:26:17.031Z,34.42
2018-07-26T11:27:16.301Z,33.48
2018-07-26T11:28:16.573Z,34.22
2018-07-26T11:29:16.847Z,34.83
2018-07-26T11:30:17.133Z,33.57
2018-07-26T11:31:17.165Z,33.15
2018-07-26T11:32:16.497Z,34.19
2018-07-26T11:33:16.835Z,34.10
2018-07-26T11:34:17.110Z,33.75
2018-07-26T11:35:16.380Z,34.55
2018-07-26T11:36:16.653Z,35.46
2018-07-26T11:37:16.931Z,35.77
2018-07-26T11:38:17.214Z,36.17
2018-07-26T11:39:16.480Z,36.09
2018-07-26T11:40:16.757Z,35.63
2018-07-26T11:41:16.832Z,35.91
2018-07-26T11:42:17.122Z,35.22
2018-07-26T11:43:16.391Z,34.86
2018-07-26T11:44:16.655Z,34.58
2018-07-26T11:45:16.918Z,36.17
2018-07-26T11:46:17.189Z,36.62
2018-07-26T11:47:16.470Z,36.62
2018-07-26T11:48:16.741Z,34.86
2018-07-26T11:49:17.012Z,34.61
2018-07-26T11:50:16.298Z,34.41
2018-07-26T11:51:16.342Z,34.17
2018-07-26T11:52:16.620Z,34.26
2018-07-26T11:53:16.893Z,34.02
2018-07-26T11:54:17.180Z,33.33
2018-07-26T11:55:16.450Z,33.61
2018-07-26T11:56:16.717Z,32.90
2018-07-26T11:57:16.993Z,32.90
2018-07-26T11:58:16.270Z,31.25
2018-07-26T11:59:16.539Z,31.25
2018-07-26T12:00:16.823Z,32.53
2018-07-26T12:01:16.867Z,32.42
2018-07-26T12:02:17.153Z,32.18
2018-07-26T12:03:16.458Z,31.97
2018-07-26T12:04:16.727Z,32.14
2018-07-26T12:05:17.018Z,31.98
2018-07-26T12:06:16.284Z,31.78
2018-07-26T12:07:16.556Z,31.60
2018-07-26T12:08:16.836Z,31.60
2018-07-26T12:09:16.251Z,31.58
2018-07-26T12:10:16.545Z,31.52
2018-07-26T12:11:16.584Z,31.27
2018-07-26T12:12:16.853Z,31.28
2018-07-26T12:13:17.170Z,31.16
2018-07-26T12:14:16.506Z,30.96
2018-07-26T12:15:16.878Z,31.00
2018-07-26T12:16:17.148Z,30.89
2018-07-26T12:17:16.414Z,30.85
2018-07-26T12:18:16.683Z,31.03
2018-07-26T12:19:16.959Z,30.85
2018-07-26T12:20:16.233Z,30.84
2018-07-26T12:21:16.281Z,30.64
2018-07-26T12:22:16.550Z,30.74
2018-07-26T12:23:16.818Z,30.57
2018-07-26T12:24:17.408Z,30.56
2018-07-26T12:25:16.687Z,30.64
2018-07-26T12:26:16.956Z,30.53
2018-07-26T12:27:16.223Z,30.62
2018-07-26T12:28:16.503Z,30.59
2018-07-26T12:29:16.763Z,30.63
2018-07-26T12:30:17.036Z,30.49
2018-07-26T12:31:17.092Z,30.18
2018-07-26T12:32:16.357Z,30.17
2018-07-26T12:33:16.619Z,30.31
2018-07-26T12:34:16.894Z,30.30
2018-07-26T12:35:17.173Z,30.46
2018-07-26T12:36:16.453Z,30.39
2018-07-26T12:37:16.725Z,30.34
2018-07-26T12:38:16.993Z,30.35
2018-07-26T12:39:16.258Z,30.37
2018-07-26T12:40:16.538Z,30.46
2018-07-26T12:41:16.592Z,30.23
2018-07-26T12:42:16.866Z,30.09
2018-07-26T12:43:17.133Z,30.13
2018-07-26T12:44:16.395Z,30.42
2018-07-26T12:45:16.662Z,30.53
2018-07-26T12:46:16.928Z,30.53
2018-07-26T12:47:17.200Z,30.55
2018-07-26T12:48:16.460Z,30.68
2018-07-26T12:49:16.736Z,30.80
2018-07-26T12:50:17.004Z,30.95
2018-07-26T12:51:17.029Z,30.87
2018-07-26T12:52:16.290Z,30.64